Time;durP1;ratioP1;P1;durP2;ratioP2;P2;SDS_P1;SDS_P2;PMS_P1;PMS_P2;Temp;Humidity;BMP_temperature;BMP_pressure;BME280_temperature;BME280_humidity;BME280_pressure;Samples;Min_cycle;Max_cycle;Signal;HPM_P1;HPM_P2
2021/12/30 00:04:22;;;;;;;;;;;;;;;11.33;100.00;100846.91;10530700;28;19920;-82
2021/12/30 00:09:25;;;;;;;;;;;;;;;11.36;100.00;100854.66;10517569;28;19967;-82
2021/12/30 00:14:27;;;;;;;;;;;;;;;11.41;100.00;100852.50;10529568;28;19925;-83
2021/12/30 00:19:31;;;;;;;;;;;;;;;11.46;100.00;100861.03;10529467;28;19927;-83
2021/12/30 00:24:32;;;;;;;;;;;;;;;11.51;100.00;100872.25;10524961;28;20404;-82
2021/12/30 00:29:34;;;;;;;;;;;;;;;11.55;100.00;100859.50;10516175;28;19923;-82
2021/12/30 00:34:37;;;;;;;;;;;;;;;11.59;100.00;100864.50;10511978;28;19923;-82
2021/12/30 00:39:38;;;;;;;;;;;;;;;11.64;100.00;100865.00;10514141;28;19931;-82
2021/12/30 00:44:40;;;;;;;;;;;;;;;11.68;100.00;100855.78;10516240;28;19920;-82
2021/12/30 00:49:43;;;;;;;;;;;;;;;11.74;100.00;100877.69;10511060;28;19920;-83
2021/12/30 00:54:44;;;;;;;;;;;;;;;11.80;100.00;100890.59;10516059;28;19977;-82
2021/12/30 00:59:45;;;;;;;;;;;;;;;11.85;100.00;100878.56;10515089;28;19928;-82
2021/12/30 01:04:48;;;;;;;;;;;;;;;11.87;100.00;100876.63;10513949;28;19968;-82
2021/12/30 01:09:50;;;;;;;;;;;;;;;11.94;100.00;100885.09;10508277;28;19928;-82
2021/12/30 01:14:51;;;;;;;;;;;;;;;11.96;100.00;100864.41;10508770;28;20640;-82
2021/12/30 01:19:54;;;;;;;;;;;;;;;12.00;100.00;100855.16;10514007;28;19931;-82
2021/12/30 01:24:56;;;;;;;;;;;;;;;12.05;100.00;100855.66;10517933;28;19923;-82
2021/12/30 01:29:57;;;;;;;;;;;;;;;12.08;100.00;100866.13;10508856;28;19965;-82
2021/12/30 01:35:03;;;;;;;;;;;;;;;12.12;100.00;100879.28;10517349;28;19981;-82
2021/12/30 01:40:05;;;;;;;;;;;;;;;12.17;100.00;100887.81;10519157;28;20385;-83
2021/12/30 01:45:07;;;;;;;;;;;;;;;12.21;100.00;100884.75;10509265;28;19990;-82
2021/12/30 01:50:10;;;;;;;;;;;;;;;12.25;100.00;100886.22;10510480;28;20061;-82
2021/12/30 01:55:14;;;;;;;;;;;;;;;12.30;100.00;100899.28;10512567;28;19924;-82
2021/12/30 02:00:17;;;;;;;;;;;;;;;12.33;100.00;100909.72;10509425;28;19973;-82
2021/12/30 02:05:19;;;;;;;;;;;;;;;12.36;100.00;100897.94;10505919;28;19951;-81
2021/12/30 02:10:21;;;;;;;;;;;;;;;12.39;100.00;100903.03;10520794;28;19920;-81
2021/12/30 02:15:22;;;;;;;;;;;;;;;12.42;100.00;100892.94;10512154;28;19950;-82
2021/12/30 02:20:44;;;;;;;;;;;;;;;12.44;100.00;100904.38;10515077;28;19936;-82
2021/12/30 02:25:48;;;;;;;;;;;;;;;12.50;100.00;100902.22;10515960;28;19930;-82
2021/12/30 02:30:50;;;;;;;;;;;;;;;12.53;100.00;100897.47;10512343;28;19924;-82
2021/12/30 02:35:52;;;;;;;;;;;;;;;12.57;100.00;100914.16;10506598;28;19924;-82
2021/12/30 02:40:56;;;;;;;;;;;;;;;12.60;100.00;100921.91;10510777;28;19928;-82
2021/12/30 02:45:58;;;;;;;;;;;;;;;12.64;100.00;100926.09;10511827;28;19960;-82
2021/12/30 02:51:01;;;;;;;;;;;;;;;12.68;100.00;100934.72;10512834;28;19974;-82
2021/12/30 02:56:05;;;;;;;;;;;;;;;12.70;100.00;100930.13;10512329;28;19924;-82
2021/12/30 03:01:08;;;;;;;;;;;;;;;12.73;100.00;100925.34;10506611;28;19962;-82
2021/12/30 03:06:10;;;;;;;;;;;;;;;12.77;100.00;100942.03;10509919;28;19924;-82
2021/12/30 03:11:13;;;;;;;;;;;;;;;12.80;100.00;100931.06;10521942;28;19927;-82
2021/12/30 03:16:16;;;;;;;;;;;;;;;12.81;100.00;100938.16;10526194;28;19931;-82
2021/12/30 03:21:18;;;;;;;;;;;;;;;12.80;100.00;100937.28;10519827;28;19954;-83
2021/12/30 03:26:22;;;;;;;;;;;;;;;12.83;100.00;100922.81;10522131;28;19920;-81
2021/12/30 03:31:24;;;;;;;;;;;;;;;12.81;100.00;100922.91;10515500;28;19933;-82
2021/12/30 03:36:26;;;;;;;;;;;;;;;12.82;100.00;100932.66;10523480;28;19924;-82
2021/12/30 03:41:30;;;;;;;;;;;;;;;12.84;100.00;100940.56;10509329;28;19935;-82
2021/12/30 03:46:31;;;;;;;;;;;;;;;12.82;100.00;100951.41;10521009;28;19920;-82
2021/12/30 03:51:38;;;;;;;;;;;;;;;12.83;100.00;100946.94;10514952;28;19982;-82
2021/12/30 03:56:41;;;;;;;;;;;;;;;12.84;100.00;100960.19;10521677;28;19968;-83
2021/12/30 04:01:42;;;;;;;;;;;;;;;12.87;100.00;100947.53;10515777;28;19931;-82
2021/12/30 04:06:44;;;;;;;;;;;;;;;12.85;100.00;100953.00;10516118;28;19924;-82
2021/12/30 04:11:47;;;;;;;;;;;;;;;12.85;100.00;100950.34;10521090;28;19935;-82
2021/12/30 04:16:49;;;;;;;;;;;;;;;12.84;100.00;100945.94;10512054;28;19924;-82
2021/12/30 04:21:53;;;;;;;;;;;;;;;12.84;100.00;100954.81;10512955;28;19920;-82
2021/12/30 04:26:56;;;;;;;;;;;;;;;12.82;100.00;100946.06;10517434;28;19920;-83
2021/12/30 04:31:59;;;;;;;;;;;;;;;12.84;100.00;100962.88;10519842;28;19928;-82
2021/12/30 04:37:00;;;;;;;;;;;;;;;12.86;100.00;100968.09;10522187;28;20265;-83
2021/12/30 04:42:03;;;;;;;;;;;;;;;12.85;100.00;100955.69;10518506;28;19931;-83
2021/12/30 04:47:05;;;;;;;;;;;;;;;12.83;100.00;100949.59;10514636;28;19928;-82
2021/12/30 04:52:06;;;;;;;;;;;;;;;12.83;100.00;100952.28;10518499;28;19934;-82
2021/12/30 04:57:09;;;;;;;;;;;;;;;12.85;100.00;100947.66;10504160;28;19973;-82
2021/12/30 05:02:11;;;;;;;;;;;;;;;12.88;100.00;100965.31;10509341;28;20327;-83
2021/12/30 05:07:13;;;;;;;;;;;;;;;12.88;100.00;100957.28;10521359;28;19980;-82
2021/12/30 05:12:15;;;;;;;;;;;;;;;12.90;100.00;100964.19;10524146;28;20280;-83
2021/12/30 05:17:17;;;;;;;;;;;;;;;12.93;100.00;100976.53;10516576;28;19974;-82
2021/12/30 05:22:18;;;;;;;;;;;;;;;12.96;100.00;100978.94;10515118;28;20032;-82
2021/12/30 05:27:21;;;;;;;;;;;;;;;12.99;100.00;100981.41;10511168;28;19927;-82
2021/12/30 05:32:22;;;;;;;;;;;;;;;13.02;100.00;100975.81;10513929;28;19950;-83
2021/12/30 05:37:24;;;;;;;;;;;;;;;13.04;100.00;100981.88;10514677;28;20337;-82
2021/12/30 05:42:27;;;;;;;;;;;;;;;13.06;100.00;100963.84;10514396;28;19924;-82
2021/12/30 05:47:28;;;;;;;;;;;;;;;13.03;100.00;100972.13;10512711;28;19936;-82
2021/12/30 05:52:30;;;;;;;;;;;;;;;13.05;100.00;100979.09;10509010;28;19920;-82
2021/12/30 05:57:32;;;;;;;;;;;;;;;13.08;100.00;100983.34;10506589;28;21438;-83
2021/12/30 06:02:35;;;;;;;;;;;;;;;13.09;100.00;101000.28;10506918;28;21104;-82
2021/12/30 06:07:36;;;;;;;;;;;;;;;13.08;100.00;100993.22;10509811;28;20299;-82
2021/12/30 06:12:39;;;;;;;;;;;;;;;13.04;100.00;101011.38;10515461;28;19928;-82
2021/12/30 06:17:41;;;;;;;;;;;;;;;13.00;100.00;101010.78;10518109;28;19974;-82
2021/12/30 06:22:43;;;;;;;;;;;;;;;13.03;100.00;101023.94;10511967;28;19924;-83
2021/12/30 06:27:46;;;;;;;;;;;;;;;13.05;100.00;101021.13;10513020;28;19929;-83
2021/12/30 06:32:47;;;;;;;;;;;;;;;13.07;100.00;101034.41;10515321;28;20001;-82
2021/12/30 06:37:49;;;;;;;;;;;;;;;13.02;100.00;101024.06;10517471;28;19928;-83
2021/12/30 06:42:52;;;;;;;;;;;;;;;13.01;100.00;101023.19;10527967;28;19931;-82
2021/12/30 06:47:54;;;;;;;;;;;;;;;13.05;100.00;101034.53;10524355;28;20296;-82
2021/12/30 06:52:55;;;;;;;;;;;;;;;13.04;100.00;101030.16;10519939;28;19928;-83
2021/12/30 06:57:58;;;;;;;;;;;;;;;13.04;100.00;101032.84;10519205;28;19932;-83
2021/12/30 07:02:59;;;;;;;;;;;;;;;13.06;100.00;101071.13;10502221;28;19928;-82
2021/12/30 07:08:01;;;;;;;;;;;;;;;13.00;100.00;101061.72;10523148;28;19920;-82
2021/12/30 07:13:04;;;;;;;;;;;;;;;12.97;100.00;101067.31;10511387;28;19923;-83
2021/12/30 07:18:05;;;;;;;;;;;;;;;12.95;100.00;101053.19;10510522;28;19931;-82
2021/12/30 07:23:07;;;;;;;;;;;;;;;12.96;100.00;101057.59;10513349;28;19927;-82
2021/12/30 07:28:09;;;;;;;;;;;;;;;12.96;100.00;101079.03;10516320;28;19965;-82
2021/12/30 07:33:11;;;;;;;;;;;;;;;12.94;100.00;101082.78;10517359;28;20360;-83
2021/12/30 07:38:12;;;;;;;;;;;;;;;12.98;100.00;101097.69;10510106;28;19920;-82
2021/12/30 07:43:15;;;;;;;;;;;;;;;13.00;100.00;101109.16;10516354;28;19955;-82
2021/12/30 07:48:18;;;;;;;;;;;;;;;13.00;100.00;101123.41;10508125;28;19970;-82
2021/12/30 07:53:20;;;;;;;;;;;;;;;12.98;100.00;101132.53;10512293;28;19920;-82
2021/12/30 07:58:23;;;;;;;;;;;;;;;12.99;100.00;101137.75;10508986;28;19926;-82
2021/12/30 08:03:24;;;;;;;;;;;;;;;13.02;100.00;101150.94;10519610;28;19931;-82
2021/12/30 08:08:26;;;;;;;;;;;;;;;13.05;100.00;101149.84;10515150;28;20410;-82
2021/12/30 08:13:29;;;;;;;;;;;;;;;13.07;100.00;101141.69;10524295;28;19928;-82
2021/12/30 08:18:30;;;;;;;;;;;;;;;13.10;100.00;101146.81;10520259;28;19925;-82
2021/12/30 08:23:31;;;;;;;;;;;;;;;13.10;100.00;101147.66;10523232;28;19949;-82
2021/12/30 08:28:34;;;;;;;;;;;;;;;13.14;100.00;101157.19;10515540;28;19908;-82
2021/12/30 08:33:36;;;;;;;;;;;;;;;13.16;100.00;101159.75;10513229;28;20050;-83
2021/12/30 08:38:37;;;;;;;;;;;;;;;13.15;100.00;101168.78;10505367;28;20307;-83
2021/12/30 08:43:40;;;;;;;;;;;;;;;13.20;100.00;101163.91;10505148;28;19966;-82
2021/12/30 08:48:42;;;;;;;;;;;;;;;13.23;100.00;101153.78;10520880;28;19923;-82
2021/12/30 08:53:43;;;;;;;;;;;;;;;13.28;100.00;101160.63;10506265;28;19953;-82
2021/12/30 08:58:46;;;;;;;;;;;;;;;13.32;100.00;101167.50;10519810;28;20387;-81
2021/12/30 09:03:48;;;;;;;;;;;;;;;13.37;100.00;101168.88;10518619;28;20383;-82
2021/12/30 09:08:49;;;;;;;;;;;;;;;13.39;100.00;101166.91;10515132;28;20023;-82
2021/12/30 09:13:52;;;;;;;;;;;;;;;13.39;100.00;101164.22;10526960;28;19920;-82
2021/12/30 09:18:53;;;;;;;;;;;;;;;13.45;100.00;101173.63;10516713;28;20196;-82
2021/12/30 09:23:55;;;;;;;;;;;;;;;13.47;100.00;101176.16;10502864;28;19999;-82
2021/12/30 09:28:58;;;;;;;;;;;;;;;13.48;100.00;101186.78;10507352;28;19923;-82
2021/12/30 09:33:59;;;;;;;63.03;44.35;;;;;;;13.51;100.00;101181.19;10517625;28;20431;-83
2021/12/30 09:39:01;;;;;;;1.17;1.00;;;;;;;13.38;100.00;101175.06;10512153;28;20210;-82
2021/12/30 09:44:05;;;;;;;26.60;24.73;;;;;;;13.51;100.00;101194.59;10515736;28;20932;-84
2021/12/30 09:49:12;;;;;;;2.15;1.77;;;;;;;13.00;100.00;101122.56;10508194;28;20218;-82
2021/12/30 09:54:14;;;;;;;1.60;1.40;;;;;;;13.50;100.00;101224.25;10512931;28;20230;-82
2021/12/30 09:59:17;;;;;;;2.03;1.83;;;;;;;13.45;100.00;101216.56;10512087;28;20203;-82
2021/12/30 10:04:29;;;;;;;2.97;2.57;;;;;;;13.49;100.00;101220.72;10511963;28;20706;-82
2021/12/30 10:09:46;;;;;;;1.95;1.73;;;;;;;13.48;100.00;101223.50;10523421;28;20226;-82
2021/12/30 10:14:54;;;;;;;1.27;1.17;;;;;;;13.24;100.00;101187.72;10515546;28;20206;-82
2021/12/30 10:20:14;;;;;;;0.52;0.50;;;;;;;13.41;100.00;101196.28;10519309;28;20237;-82
2021/12/30 10:25:31;;;;;;;1.17;1.08;;;;;;;13.25;100.00;101189.41;10505513;28;20344;-82
2021/12/30 10:30:35;;;;;;;1.48;1.38;;;;;;;13.40;100.00;101221.41;10512787;28;20230;-83
2021/12/30 10:35:38;;;;;;;1.58;1.45;;;;;;;13.08;100.00;101173.75;10514061;28;20221;-82
2021/12/30 10:40:41;;;;;;;;;;;;;;;13.37;100.00;101214.47;10508098;28;20203;-82
2021/12/30 10:45:44;;;;;;;2.00;1.58;;;;;;;13.37;100.00;101218.97;10503612;28;20946;-82
2021/12/30 10:50:45;;;;;;;0.65;0.57;;;;;;;13.21;100.00;101206.72;10505356;28;20227;-81
2021/12/30 10:55:47;;;;;;;3.05;2.78;;;;;;;13.40;100.00;101226.78;10513215;28;20640;-82
2021/12/30 11:00:50;;;;;;;0.50;0.50;;;;;;;13.12;100.00;101175.22;10513348;28;20275;-82
2021/12/30 11:06:12;;;;;;;1.75;1.63;;;;;;;13.32;100.00;101240.78;10514957;28;20671;-83
2021/12/30 11:11:23;;;;;;;2.30;2.10;;;;;;;13.21;100.00;101217.44;10512244;28;20226;-82
2021/12/30 11:16:59;;;;;;;0.40;0.40;;;;;;;13.33;100.00;101239.81;10523620;28;20205;-82
2021/12/30 11:22:03;;;;;;;0.90;0.90;;;;;;;12.83;100.00;101154.19;10513446;28;20681;-82
2021/12/30 11:27:06;;;;;;;;;;;;;;;13.36;100.00;101268.25;10522302;28;20273;-82
2021/12/30 11:32:11;;;;;;;1.38;1.10;;;;;;;13.37;100.00;101260.09;10482871;28;20484;-82
2021/12/30 11:37:14;;;;;;;1.10;1.00;;;;;;;13.40;100.00;101272.41;10487126;28;20192;-82
2021/12/30 11:42:18;;;;;;;1.48;1.35;;;;;;;13.44;100.00;101274.72;10534437;22;20239;-84
2021/12/30 11:47:42;;;;;;;0.60;0.60;;;;;;;13.44;100.00;101255.94;10403962;28;20228;-82
2021/12/30 11:52:55;;;;;;;1.20;1.13;;;;;;;12.46;100.00;101098.00;10403317;28;20473;-83
2021/12/30 11:58:17;;;;;;;;;;;;;;;13.12;100.00;101204.72;10390232;28;20255;-83
2021/12/30 12:03:30;;;;;;;1.90;1.52;;;;;;;13.50;100.00;101281.44;10396328;28;20446;-83
2021/12/30 12:08:43;;;;;;;1.83;1.67;;;;;;;13.24;100.00;101232.44;10399059;28;20232;-82
2021/12/30 12:13:46;;;;;;;1.05;1.00;;;;;;;13.49;100.00;101273.53;10395778;28;20213;-83
2021/12/30 12:19:02;;;;;;;;;;;;;;;13.49;100.00;101274.38;10392719;28;20315;-83
2021/12/30 12:24:28;;;;;;;2.30;1.88;;;;;;;13.46;100.00;101274.59;10389043;28;20484;-83
2021/12/30 12:29:33;;;;;;;0.70;0.70;;;;;;;13.50;100.00;101268.03;10392382;28;20592;-83
2021/12/30 12:34:39;;;;;;;;;;;;;;;13.51;100.00;101271.59;10393100;28;20633;-83
2021/12/30 12:39:42;;;;;;;1.00;0.85;;;;;;;13.53;100.00;101267.81;10384013;28;20457;-82
2021/12/30 12:44:44;;;;;;;;;;;;;;;13.59;100.00;101266.47;10393433;28;20243;-83
2021/12/30 12:49:45;;;;;;;2.50;2.10;;;;;;;13.61;100.00;101268.06;10388973;28;20457;-83
2021/12/30 12:54:50;;;;;;;;;;;;;;;13.61;100.00;101262.69;10408666;28;20200;-83
2021/12/30 12:59:52;;;;;;;1.60;1.20;;;;;;;13.65;100.00;101263.31;10395612;28;20442;-83
2021/12/30 13:05:06;;;;;;;;;;;;;;;13.66;100.00;101272.22;10397365;28;20224;-83
2021/12/30 13:10:10;;;;;;;1.70;1.48;;;;;;;13.62;99.75;101263.56;10401751;28;20458;-83
2021/12/30 13:15:12;;;;;;;;;;;;;;;13.65;99.82;101260.63;10393890;28;20215;-83
2021/12/30 13:20:14;;;;;;;;;;;;;;;13.69;100.00;101251.34;10400334;28;19925;-83
2021/12/30 13:25:17;;;;;;;;;;;;;;;13.70;100.00;101261.13;10398859;28;19928;-82
2021/12/30 13:30:19;;;;;;;;;;;;;;;13.69;99.74;101269.28;10394889;28;19921;-82
2021/12/30 13:35:22;;;;;;;;;;;;;;;13.70;100.00;101271.84;10407239;28;19932;-83
2021/12/30 13:40:26;;;;;;;;;;;;;;;13.71;100.00;101259.28;10402146;28;19935;-82
2021/12/30 13:45:29;;;;;;;;;;;;;;;13.70;100.00;101269.19;10390283;28;20290;-83
2021/12/30 13:50:30;;;;;;;;;;;;;;;13.69;100.00;101270.13;10386836;28;20296;-83
2021/12/30 13:55:36;;;;;;;;;;;;;;;13.75;100.00;101276.84;10397052;28;19921;-83
2021/12/30 14:00:40;;;;;;;;;;;;;;;13.76;100.00;101278.56;10406540;28;19970;-83
2021/12/30 14:05:45;;;;;;;;;;;;;;;13.79;100.00;101287.25;10398320;28;19921;-83
2021/12/30 14:10:49;;;;;;;;;;;;;;;13.79;100.00;101284.56;10406115;28;19921;-82
2021/12/30 14:15:55;;;;;;;2.15;1.73;;;;;;;13.12;100.00;101163.66;10402284;28;20815;-84
2021/12/30 14:20:57;;;;;;;;;;;;;;;13.81;100.00;101287.13;10395819;28;20236;-82
2021/12/30 14:26:10;;;;;;;;;;;;;;;13.81;100.00;101285.31;10393882;28;20483;-83
2021/12/30 14:31:18;;;;;;;;;;;;;;;13.83;100.00;101309.34;10402067;28;19935;-82
2021/12/30 14:36:20;;;;;;;;;;;;;;;13.83;100.00;101303.97;10391958;28;19931;-83
2021/12/30 14:41:24;;;;;;;1.60;1.30;;;;;;;13.83;100.00;101303.97;10384955;28;20445;-83
2021/12/30 14:46:26;;;;;;;;;;;;;;;13.83;100.00;101306.66;10393639;28;20150;-82
2021/12/30 14:51:30;;;;;;;;;;;;;;;13.80;100.00;101323.84;10402773;28;20418;-82
2021/12/30 14:56:33;;;;;;;;;;;;;;;13.79;100.00;101332.91;10395256;28;20384;-83
2021/12/30 15:01:36;;;;;;;;;;;;;;;13.83;100.00;101339.75;10409361;28;19928;-82
2021/12/30 15:06:37;;;;;;;;;;;;;;;13.85;100.00;101336.09;10412901;28;19925;-83
2021/12/30 15:11:40;;;;;;;;;;;;;;;13.88;99.95;101344.78;10406150;28;19921;-83
2021/12/30 15:16:42;;;;;;;;;;;;;;;13.92;100.00;101359.66;10397381;28;19920;-83
2021/12/30 15:21:43;;;;;;;;;;;;;;;13.91;99.64;101354.41;10411503;28;19921;-82
2021/12/30 15:26:46;;;;;;;;;;;;;;;13.93;99.69;101368.56;10404402;28;19971;-82
2021/12/30 15:31:50;;;;;;;;;;;;;;;13.90;99.69;101363.41;10403267;28;19932;-83
2021/12/30 15:36:52;;;;;;;;;;;;;;;13.92;100.00;101375.78;10401624;28;19936;-83
2021/12/30 15:41:54;;;;;;;;;;;;;;;13.93;99.47;101382.00;10396596;28;19982;-82
2021/12/30 15:46:56;;;;;;;;;;;;;;;13.89;99.33;101383.22;10391964;28;20513;-83
2021/12/30 15:51:58;;;;;;;;;;;;;;;13.83;99.28;101398.81;10404722;28;19929;-82
2021/12/30 15:57:01;;;;;;;;;;;;;;;13.82;99.03;101398.94;10404903;28;19921;-83
2021/12/30 16:02:03;;;;;;;;;;;;;;;13.79;99.45;101408.09;10400544;28;19925;-82
2021/12/30 16:07:05;;;;;;;;;;;;;;;13.73;99.63;101413.03;10401488;28;20273;-82
2021/12/30 16:12:08;;;;;;;;;;;;;;;13.72;99.53;101433.69;10405693;28;19928;-83
2021/12/30 16:17:09;;;;;;;;;;;;;;;13.69;99.61;101433.06;10407001;28;19924;-83
2021/12/30 16:22:11;;;;;;;;;;;;;;;13.66;100.00;101434.16;10390005;28;20352;-83
2021/12/30 16:27:14;;;;;;;;;;;;;;;13.66;100.00;101433.31;10399168;28;20489;-83
2021/12/30 16:32:17;;;;;;;;;;;;;;;13.67;100.00;101394.72;10385559;28;19929;-83
2021/12/30 16:37:18;;;;;;;;;;;;;;;13.66;100.00;101435.97;10353920;28;19949;-83
2021/12/30 16:42:21;;;;;;;;;;;;;;;13.67;100.00;101437.69;10364400;28;19922;-83
2021/12/30 16:47:23;;;;;;;;;;;;;;;13.70;99.72;101435.63;10361312;28;19944;-84
2021/12/30 16:52:24;;;;;;;;;;;;;;;13.71;100.00;101439.16;10363656;28;19921;-84
2021/12/30 16:57:27;;;;;;;;;;;;;;;13.72;99.71;101452.47;10369553;28;19993;-83
2021/12/30 17:02:30;;;;;;;;;;;;;;;13.71;99.58;101442.72;10359801;28;20005;-83
2021/12/30 17:07:32;;;;;;;;;;;;;;;13.70;99.67;101453.56;10361393;28;19925;-84
2021/12/30 17:12:34;;;;;;;;;;;;;;;13.72;99.85;101454.31;10348352;28;19930;-83
2021/12/30 17:17:36;;;;;;;;;;;;;;;13.71;99.30;101440.03;10356736;28;19921;-82
2021/12/30 17:22:37;;;;;;;;;;;;;;;13.74;99.29;101442.47;10356184;28;20476;-83
2021/12/30 17:27:40;;;;;;;;;;;;;;;13.74;99.22;101455.06;10363017;28;19921;-83
2021/12/30 17:32:42;;;;;;;;;;;;;;;13.78;99.49;101460.06;10405166;28;20386;-83
2021/12/30 17:37:44;;;;;;;;;;;;;;;13.77;98.98;101460.19;10429545;28;19921;-83
2021/12/30 17:42:48;;;;;;;;;;;;;;;13.75;98.59;101476.41;10438330;28;19925;-83
2021/12/30 17:47:50;;;;;;;;;;;;;;;13.75;99.07;101476.41;10440906;28;19971;-83
2021/12/30 17:52:52;;;;;;;;;;;;;;;13.79;98.95;101472.53;10438865;28;19920;-83
2021/12/30 17:57:56;;;;;;;;;;;;;;;13.79;98.36;101477.06;10439091;28;19967;-83
2021/12/30 18:02:58;;;;;;;;;;;;;;;13.81;98.64;101485.84;10430829;28;19928;-83
2021/12/30 18:07:59;;;;;;;;;;;;;;;13.84;98.84;101482.91;10436033;28;19928;-82
2021/12/30 18:13:03;;;;;;;2.50;2.10;;;;;;;13.84;98.56;101496.34;10437902;28;20457;-83
2021/12/30 18:18:06;;;;;;;;;;;;;;;13.87;98.35;101508.69;10434781;28;20575;-83
2021/12/30 18:23:08;;;;;;;;;;;;;;;13.85;97.88;101505.28;10438827;28;19929;-83
2021/12/30 18:28:11;;;;;;;;;;;;;;;13.84;98.09;101523.19;10441197;28;19921;-83
2021/12/30 18:33:13;;;;;;;;;;;;;;;13.86;97.60;101506.97;10436011;28;19921;-83
2021/12/30 18:38:15;;;;;;;;;;;;;;;13.88;97.62;101539.94;10436022;28;19934;-83
2021/12/30 18:43:18;;;;;;;;;;;;;;;13.88;97.38;101527.38;10439789;28;19931;-82
2021/12/30 18:48:20;;;;;;;;;;;;;;;13.86;97.23;101537.34;10451029;28;19982;-82
2021/12/30 18:53:22;;;;;;;;;;;;;;;13.83;96.64;101516.97;10444232;28;19929;-82
2021/12/30 18:58:24;;;;;;;;;;;;;;;13.83;97.31;101530.41;10441385;28;19921;-82
2021/12/30 19:03:26;;;;;;;;;;;;;;;13.86;96.76;101526.63;10440314;28;19928;-83
2021/12/30 19:08:28;;;;;;;;;;;;;;;13.86;96.89;101536.50;10445481;28;20410;-83
2021/12/30 19:13:31;;;;;;;;;;;;;;;13.86;96.99;101540.03;10448587;28;19935;-82
2021/12/30 19:18:36;;;;;;;;;;;;;;;13.87;96.65;101533.72;10446498;28;20398;-82
2021/12/30 19:23:38;;;;;;;;;;;;;;;13.88;96.66;101522.00;10450400;28;19948;-83
2021/12/30 19:28:41;;;;;;;;;;;;;;;13.86;96.61;101520.41;10440835;28;20004;-82
2021/12/30 19:33:43;;;;;;;;;;;;;;;13.84;96.29;101523.19;10438964;28;19925;-82
2021/12/30 19:38:45;;;;;;;;;;;;;;;13.87;96.40;101511.38;10440451;28;19955;-83
2021/12/30 19:43:49;;;;;;;;;;;;;;;13.90;96.60;101513.81;10427005;28;20373;-83
2021/12/30 19:48:50;;;;;;;;;;;;;;;13.92;96.79;101510.06;10426311;28;19968;-82
2021/12/30 19:53:52;;;;;;;;;;;;;;;13.93;96.36;101505.53;10441308;28;19928;-82
2021/12/30 19:58:54;;;;;;;;;;;;;;;13.94;96.36;101510.81;10430308;28;19932;-81
2021/12/30 20:03:56;;;;;;;;;;;;;;;13.97;96.27;101515.06;10442277;28;19970;-81
2021/12/30 20:08:57;;;;;;;;;;;;;;;13.97;95.81;101515.91;10439755;28;20011;-81
2021/12/30 20:14:05;;;;;;;;;;;;;;;14.00;95.52;101506.81;10435903;28;20364;-82
2021/12/30 20:19:08;;;;;;;;;;;;;;;14.01;95.30;101506.69;10438867;28;20386;-82
2021/12/30 20:24:10;;;;;;;;;;;;;;;14.05;95.21;101514.50;10437099;28;20776;-82
2021/12/30 20:29:13;;;;;;;;;;;;;;;14.02;94.55;101511.06;10436594;28;19963;-82
2021/12/30 20:34:15;;;;;;;;;;;;;;;14.05;95.37;101504.59;10434320;28;19967;-81
2021/12/30 20:39:17;;;;;;;;;;;;;;;14.07;95.01;101518.81;10439945;28;19929;-81
2021/12/30 20:44:23;;;;;;;;;;;;;;;14.07;94.91;101525.97;10435974;28;19921;-82
2021/12/30 20:49:24;;;;;;;;;;;;;;;14.03;95.12;101511.91;10432000;28;20292;-82
2021/12/30 20:54:26;;;;;;;;;;;;;;;14.02;94.76;101521.81;10437370;28;19909;-82
2021/12/30 20:59:29;;;;;;;;;;;;;;;14.00;94.61;101515.72;10449174;28;19924;-82
2021/12/30 21:04:30;;;;;;;;;;;;;;;14.01;94.54;101520.13;10438317;28;19929;-82
2021/12/30 21:09:32;;;;;;;;;;;;;;;13.98;94.21;101525.72;10440919;28;19925;-81
2021/12/30 21:14:35;;;;;;;;;;;;;;;14.03;94.50;101530.72;10438002;28;19928;-82
2021/12/30 21:19:37;;;;;;;;;;;;;;;14.05;94.43;101539.53;10428668;28;19928;-81
2021/12/30 21:24:39;;;;;;;;;;;;;;;14.05;94.41;101538.66;10441239;28;19932;-81
2021/12/30 21:29:42;;;;;;;;;;;;;;;14.09;94.88;101543.72;10443220;28;19925;-80
2021/12/30 21:34:43;;;;;;;;;;;;;;;14.09;94.68;101535.66;10435580;28;19936;-82
2021/12/30 21:39:45;;;;;;;;;;;;;;;14.10;94.51;101533.81;10427447;28;19921;-81
2021/12/30 21:44:47;;;;;;;;;;;;;;;14.13;94.93;101520.16;10439959;28;19939;-82
2021/12/30 21:49:49;;;;;;;;;;;;;;;14.12;94.44;101527.34;10435451;28;19936;-81
2021/12/30 21:54:51;;;;;;;;;;;;;;;14.10;94.96;101536.50;10432809;28;19947;-81
2021/12/30 21:59:54;;;;;;;;;;;;;;;14.06;95.01;101527.81;10429575;28;19935;-81
2021/12/30 22:04:55;;;;;;;;;;;;;;;14.06;94.57;101529.66;10434809;28;19925;-82
2021/12/30 22:09:56;;;;;;;;;;;;;;;14.05;94.70;101527.94;10443672;28;20395;-83
2021/12/30 22:15:00;;;;;;;;;;;;;;;14.05;94.66;101525.25;10447745;28;19925;-83
2021/12/30 22:20:02;;;;;;;;;;;;;;;14.04;94.60;101532.44;10446847;28;20002;-82
2021/12/30 22:25:06;;;;;;;;;;;;;;;14.01;94.18;101524.59;10436781;28;20010;-83
2021/12/30 22:30:11;;;;;;;;;;;;;;;14.03;94.55;101536.09;10453405;28;19924;-82
2021/12/30 22:35:12;;;;;;;;;;;;;;;13.99;94.33;101532.81;10442670;28;19931;-83
2021/12/30 22:40:14;;;;;;;;;;;;;;;13.99;94.04;101527.44;10440298;28;19921;-82
2021/12/30 22:45:17;;;;;;;;;;;;;;;14.04;94.33;101540.50;10448163;28;19932;-82
2021/12/30 22:50:19;;;;;;;;;;;;;;;14.06;93.63;101535.03;10441460;28;19928;-82
2021/12/30 22:55:22;;;;;;;;;;;;;;;14.06;93.48;101524.28;10434045;28;20197;-82
2021/12/30 23:00:30;;;;;;;;;;;;;;;14.09;93.51;101526.72;10436717;28;19924;-82
2021/12/30 23:05:31;;;;;;;;;;;;;;;14.09;92.77;101518.66;10435199;28;19928;-82
2021/12/30 23:10:33;;;;;;;;;;;;;;;14.11;93.09;101527.47;10416750;28;19929;-81
2021/12/30 23:15:35;;;;;;;;;;;;;;;14.11;92.93;101522.09;10441073;28;19940;-82
2021/12/30 23:20:39;;;;;;;;;;;;;;;14.10;92.64;101534.66;10432372;28;20153;-82
2021/12/30 23:25:41;;;;;;;;;;;;;;;14.07;92.66;101529.53;10440502;28;19928;-82
2021/12/30 23:30:45;;;;;;;;;;;;;;;14.05;92.62;101530.63;10436488;28;20394;-82
2021/12/30 23:35:46;;;;;;;;;;;;;;;14.04;93.07;101526.22;10434820;28;19921;-83
2021/12/30 23:40:51;;;;;;;;;;;;;;;14.02;93.10;101537.94;10434777;28;20111;-82
2021/12/30 23:45:53;;;;;;;;;;;;;;;14.01;92.95;101544.28;10443378;28;20324;-82
2021/12/30 23:50:55;;;;;;;;;;;;;;;14.01;93.59;101528.19;10434607;28;19929;-82
2021/12/30 23:55:56;;;;;;;;;;;;;;;14.02;93.11;101537.94;10426421;28;19921;-81
